createdAt,value
2019-04-26T00:00:46.440Z,46.37
2019-04-26T00:01:46.411Z,46.37
2019-04-26T00:02:46.510Z,47.08
2019-04-26T00:03:46.359Z,46.68
2019-04-26T00:04:46.327Z,46.68
2019-04-26T00:05:46.311Z,46.98
2019-04-26T00:06:46.276Z,46.88
2019-04-26T00:07:46.253Z,46.98
2019-04-26T00:08:46.314Z,47.08
2019-04-26T00:09:46.200Z,47.49
2019-04-26T00:10:46.190Z,47.49
2019-04-26T00:11:46.170Z,47.69
2019-04-26T00:12:46.120Z,47.59
2019-04-26T00:13:46.120Z,47.39
2019-04-26T00:14:46.067Z,47.51
2019-04-26T00:15:46.045Z,47.39
2019-04-26T00:16:46.014Z,46.98
2019-04-26T00:17:45.992Z,47.71
2019-04-26T00:18:46.553Z,48.52
2019-04-26T00:19:45.936Z,47.61
2019-04-26T00:20:45.916Z,47.91
2019-04-26T00:21:45.883Z,47.91
2019-04-26T00:22:45.878Z,48.02
2019-04-26T00:23:45.854Z,48.30
2019-04-26T00:24:45.804Z,48.50
2019-04-26T00:25:45.779Z,48.50
2019-04-26T00:26:45.752Z,48.72
2019-04-26T00:27:45.723Z,48.82
2019-04-26T00:28:46.087Z,49.13
2019-04-26T00:29:45.680Z,48.62
2019-04-26T00:30:45.644Z,48.52
2019-04-26T00:31:45.670Z,48.42
2019-04-26T00:32:45.588Z,48.62
2019-04-26T00:33:45.566Z,48.62
2019-04-26T00:34:45.562Z,48.32
2019-04-26T00:35:47.916Z,48.30
2019-04-26T00:36:45.485Z,48.60
2019-04-26T00:37:45.459Z,48.90
2019-04-26T00:38:45.434Z,49.13
2019-04-26T00:39:45.431Z,49.41
2019-04-26T00:40:45.380Z,49.10
2019-04-26T00:41:45.353Z,49.21
2019-04-26T00:42:45.332Z,49.22
2019-04-26T00:43:45.297Z,49.84
2019-04-26T00:44:45.306Z,49.93
2019-04-26T00:45:45.247Z,49.93
2019-04-26T00:46:45.218Z,49.53
2019-04-26T00:47:45.193Z,50.04
2019-04-26T00:48:45.166Z,50.64
2019-04-26T00:49:45.175Z,50.34
2019-04-26T00:50:45.120Z,50.34
2019-04-26T00:51:45.093Z,50.04
2019-04-26T00:52:45.131Z,50.34
2019-04-26T00:53:45.040Z,49.63
2019-04-26T00:54:45.044Z,49.93
2019-04-26T00:55:44.979Z,50.04
2019-04-26T00:56:44.969Z,50.37
2019-04-26T00:57:44.932Z,50.46
2019-04-26T00:58:44.897Z,50.67
2019-04-26T00:59:44.909Z,51.07
2019-04-26T01:00:44.845Z,50.97
2019-04-26T01:01:44.825Z,50.84
2019-04-26T01:02:44.799Z,51.25
2019-04-26T01:03:44.768Z,51.05
2019-04-26T01:04:44.769Z,50.57
2019-04-26T01:05:44.720Z,51.17
2019-04-26T01:06:44.702Z,50.97
2019-04-26T01:07:44.661Z,51.48
2019-04-26T01:08:44.679Z,51.57
2019-04-26T01:09:44.609Z,51.68
2019-04-26T01:10:44.602Z,51.28
2019-04-26T01:11:44.563Z,51.45
2019-04-26T01:12:44.532Z,51.78
2019-04-26T01:13:44.500Z,51.88
2019-04-26T01:14:44.481Z,51.88
2019-04-26T01:15:44.475Z,51.78
2019-04-26T01:16:44.419Z,51.98
2019-04-26T01:17:44.406Z,52.39
2019-04-26T01:18:44.368Z,51.98
2019-04-26T01:19:44.346Z,52.08
2019-04-26T01:20:44.335Z,52.28
2019-04-26T01:21:44.288Z,51.98
2019-04-26T01:22:44.257Z,51.81
2019-04-26T01:23:44.237Z,52.19
2019-04-26T01:24:44.209Z,53.02
2019-04-26T01:25:44.269Z,52.72
2019-04-26T01:26:44.152Z,53.22
2019-04-26T01:27:44.138Z,53.42
2019-04-26T01:28:44.098Z,53.42
2019-04-26T01:29:44.076Z,53.72
2019-04-26T01:30:44.084Z,54.05
2019-04-26T01:31:44.021Z,53.85
2019-04-26T01:32:43.996Z,54.26
2019-04-26T01:33:43.964Z,54.05
2019-04-26T01:34:43.944Z,53.96
2019-04-26T01:35:43.936Z,54.86
2019-04-26T01:36:43.886Z,54.59
2019-04-26T01:37:43.858Z,54.38
2019-04-26T01:38:43.847Z,54.36
2019-04-26T01:39:43.819Z,54.26
2019-04-26T01:40:43.800Z,54.36
2019-04-26T01:41:43.753Z,54.86
2019-04-26T01:42:43.744Z,55.70
2019-04-26T01:43:43.735Z,55.88
2019-04-26T01:44:43.670Z,55.40
2019-04-26T01:45:43.671Z,55.80
2019-04-26T01:46:43.614Z,55.60
2019-04-26T01:47:43.588Z,55.70
2019-04-26T01:48:43.566Z,56.31
2019-04-26T01:49:43.543Z,56.10
2019-04-26T01:50:43.535Z,56.51
2019-04-26T01:51:43.482Z,56.10
2019-04-26T01:52:43.455Z,56.01
2019-04-26T01:53:43.438Z,56.71
2019-04-26T01:54:43.401Z,57.02
2019-04-26T01:55:43.407Z,56.71
2019-04-26T01:56:43.371Z,55.90
2019-04-26T01:57:43.352Z,55.88
2019-04-26T01:58:43.292Z,56.10
2019-04-26T01:59:43.274Z,56.28
2019-04-26T02:00:43.241Z,56.59
2019-04-26T02:01:43.241Z,56.69
2019-04-26T02:02:43.187Z,57.02
2019-04-26T02:03:43.161Z,57.22
2019-04-26T02:04:43.138Z,57.02
2019-04-26T02:05:43.144Z,57.32
2019-04-26T02:06:43.100Z,57.42
2019-04-26T02:07:43.050Z,57.73
2019-04-26T02:08:43.030Z,57.42
2019-04-26T02:09:42.999Z,58.34
2019-04-26T02:10:42.969Z,57.93
2019-04-26T02:11:42.966Z,57.83
2019-04-26T02:12:42.917Z,58.13
2019-04-26T02:13:42.894Z,58.44
2019-04-26T02:14:42.860Z,57.32
2019-04-26T02:15:43.456Z,57.83
2019-04-26T02:16:42.834Z,58.03
2019-04-26T02:17:42.788Z,58.34
2019-04-26T02:18:42.754Z,58.44
2019-04-26T02:19:42.741Z,58.44
2019-04-26T02:20:42.706Z,58.54
2019-04-26T02:21:42.695Z,59.34
2019-04-26T02:22:42.647Z,59.45
2019-04-26T02:23:42.615Z,59.34
2019-04-26T02:24:42.591Z,59.34
2019-04-26T02:25:42.564Z,59.14
2019-04-26T02:26:42.582Z,58.84
2019-04-26T02:27:42.513Z,59.05
2019-04-26T02:28:42.484Z,59.34
2019-04-26T02:29:42.464Z,60.06
2019-04-26T02:30:42.429Z,59.95
2019-04-26T02:31:42.423Z,59.95
2019-04-26T02:32:42.375Z,59.95
2019-04-26T02:33:42.346Z,59.75
2019-04-26T02:34:42.322Z,59.65
2019-04-26T02:35:42.298Z,60.16
2019-04-26T02:36:57.273Z,60.26
2019-04-26T02:37:42.264Z,60.06
2019-04-26T02:38:42.215Z,60.06
2019-04-26T02:39:42.185Z,60.06
2019-04-26T02:40:42.157Z,60.36
2019-04-26T02:41:42.149Z,60.77
2019-04-26T02:42:42.149Z,60.86
2019-04-26T02:43:42.077Z,60.16
2019-04-26T02:44:42.050Z,60.59
2019-04-26T02:45:42.031Z,60.59
2019-04-26T02:46:42.005Z,60.59
2019-04-26T02:47:41.992Z,60.97
2019-04-26T02:48:41.949Z,61.17
2019-04-26T02:49:41.918Z,61.47
2019-04-26T02:50:41.890Z,61.30
2019-04-26T02:51:41.876Z,61.20
2019-04-26T02:52:41.855Z,61.58
2019-04-26T02:53:41.810Z,61.00
2019-04-26T02:54:41.787Z,61.27
2019-04-26T02:55:42.688Z,60.86
2019-04-26T02:56:41.732Z,61.17
2019-04-26T02:57:41.720Z,61.20
2019-04-26T02:58:41.677Z,61.58
2019-04-26T02:59:41.646Z,61.51
2019-04-26T03:00:41.625Z,62.01
2019-04-26T03:01:41.591Z,61.80
2019-04-26T03:02:41.635Z,61.80
2019-04-26T03:03:41.537Z,61.80
2019-04-26T03:04:41.515Z,62.04
2019-04-26T03:05:41.487Z,62.54
2019-04-26T03:06:42.857Z,62.45
2019-04-26T03:07:42.801Z,62.65
2019-04-26T03:08:42.649Z,62.45
2019-04-26T03:09:43.024Z,62.14
2019-04-26T03:10:41.345Z,62.54
2019-04-26T03:11:41.332Z,63.26
2019-04-26T03:12:41.368Z,62.14
2019-04-26T03:13:41.264Z,62.85
2019-04-26T03:14:41.960Z,62.65
2019-04-26T03:15:42.564Z,63.08
2019-04-26T03:16:42.862Z,63.39
2019-04-26T03:17:41.153Z,63.59
2019-04-26T03:18:42.868Z,63.49
2019-04-26T03:19:41.100Z,63.69
2019-04-26T03:20:42.212Z,63.39
2019-04-26T03:21:41.068Z,63.69
2019-04-26T03:22:42.557Z,63.79
2019-04-26T03:23:53.288Z,63.69
2019-04-26T03:24:42.460Z,63.79
2019-04-26T03:25:42.209Z,63.79
2019-04-26T03:26:41.602Z,63.59
2019-04-26T03:27:41.877Z,63.79
2019-04-26T03:28:43.097Z,63.89
2019-04-26T03:29:41.926Z,63.69
2019-04-26T03:30:49.086Z,63.29
2019-04-26T03:31:51.925Z,63.32
2019-04-26T03:32:50.489Z,64.30
2019-04-26T03:33:50.015Z,64.20
2019-04-26T03:34:52.618Z,64.40
2019-04-26T03:35:54.912Z,64.40
2019-04-26T03:36:42.402Z,64.73
2019-04-26T03:37:42.619Z,64.70
2019-04-26T03:38:41.923Z,64.81
2019-04-26T03:39:42.435Z,65.01
2019-04-26T03:40:42.446Z,64.81
2019-04-26T03:41:41.099Z,64.81
2019-04-26T03:42:42.212Z,65.14
2019-04-26T03:43:41.234Z,65.11
2019-04-26T03:44:42.059Z,65.04
2019-04-26T03:45:42.432Z,65.04
2019-04-26T03:46:41.828Z,65.14
2019-04-26T03:47:42.780Z,65.42
2019-04-26T03:48:41.584Z,65.11
2019-04-26T03:49:41.999Z,65.45
2019-04-26T03:50:41.033Z,65.75
2019-04-26T03:51:41.150Z,65.75
2019-04-26T03:52:41.691Z,65.55
2019-04-26T03:53:41.901Z,65.34
2019-04-26T03:54:41.056Z,65.85
2019-04-26T03:55:41.559Z,65.14
2019-04-26T03:56:41.706Z,65.24
2019-04-26T03:57:41.839Z,65.65
2019-04-26T03:58:40.503Z,65.85
2019-04-26T03:59:40.732Z,65.55
2019-04-26T04:00:41.337Z,65.45
2019-04-26T04:01:41.258Z,65.75
2019-04-26T04:02:41.381Z,65.48
2019-04-26T04:03:43.087Z,66.19
2019-04-26T04:04:41.581Z,66.36
2019-04-26T04:05:41.540Z,65.75
2019-04-26T04:06:56.752Z,65.99
2019-04-26T04:07:45.286Z,66.05
2019-04-26T04:08:40.855Z,66.26
2019-04-26T04:09:41.051Z,66.16
2019-04-26T04:10:41.483Z,65.75
2019-04-26T04:11:40.815Z,65.95
2019-04-26T04:12:41.471Z,66.05
2019-04-26T04:13:43.240Z,65.85
2019-04-26T04:14:40.630Z,65.85
2019-04-26T04:15:40.612Z,65.75
2019-04-26T04:16:42.453Z,65.55
2019-04-26T04:17:41.927Z,65.45
2019-04-26T04:18:40.441Z,65.45
2019-04-26T04:19:40.928Z,65.75
2019-04-26T04:20:40.861Z,65.21
2019-04-26T04:21:40.723Z,65.11
2019-04-26T04:22:41.296Z,65.01
2019-04-26T04:23:39.849Z,65.08
2019-04-26T04:24:41.330Z,65.08
2019-04-26T04:25:41.171Z,65.08
2019-04-26T04:26:40.924Z,64.98
2019-04-26T04:27:40.137Z,64.58
2019-04-26T04:28:40.463Z,64.58
2019-04-26T04:29:46.239Z,64.24
2019-04-26T04:30:40.644Z,64.14
2019-04-26T04:31:40.484Z,64.24
2019-04-26T04:32:40.280Z,64.21
2019-04-26T04:33:40.737Z,63.32
2019-04-26T04:34:41.491Z,63.30
2019-04-26T04:35:40.493Z,63.30
2019-04-26T04:36:41.494Z,63.30
2019-04-26T04:37:56.482Z,63.50
2019-04-26T04:38:40.903Z,63.40
2019-04-26T04:39:40.805Z,63.60
2019-04-26T04:40:38.909Z,63.81
2019-04-26T04:41:38.857Z,63.57
2019-04-26T04:42:38.893Z,63.17
2019-04-26T04:43:41.939Z,63.37
2019-04-26T04:44:38.779Z,62.73
2019-04-26T04:45:38.921Z,62.93
2019-04-26T04:46:38.734Z,62.93
2019-04-26T04:47:38.707Z,62.93
2019-04-26T04:48:38.675Z,62.63
2019-04-26T04:49:38.650Z,62.63
2019-04-26T04:50:38.653Z,62.43
2019-04-26T04:51:38.596Z,62.30
2019-04-26T04:52:38.572Z,62.57
2019-04-26T04:53:38.544Z,62.10
2019-04-26T04:54:38.513Z,61.87
2019-04-26T04:55:38.512Z,61.56
2019-04-26T04:56:38.463Z,61.66
2019-04-26T04:57:38.442Z,61.76
2019-04-26T04:58:38.405Z,61.66
2019-04-26T04:59:38.381Z,61.96
2019-04-26T05:00:38.392Z,61.96
2019-04-26T05:01:38.337Z,62.27
2019-04-26T05:02:38.381Z,62.60
2019-04-26T05:03:38.281Z,61.90
2019-04-26T05:04:38.255Z,62.40
2019-04-26T05:05:38.248Z,62.27
2019-04-26T05:06:38.201Z,63.18
2019-04-26T05:07:38.213Z,62.90
2019-04-26T05:08:38.147Z,62.81
2019-04-26T05:09:38.127Z,63.31
2019-04-26T05:10:38.117Z,63.61
2019-04-26T05:11:38.071Z,63.51
2019-04-26T05:12:38.051Z,63.71
2019-04-26T05:13:38.020Z,63.21
2019-04-26T05:14:37.994Z,63.51
2019-04-26T05:15:37.990Z,63.21
2019-04-26T05:16:37.944Z,63.08
2019-04-26T05:17:37.913Z,62.47
2019-04-26T05:18:37.884Z,62.57
2019-04-26T05:19:37.868Z,62.54
2019-04-26T05:20:37.877Z,61.83
2019-04-26T05:21:37.810Z,62.24
2019-04-26T05:22:37.793Z,62.04
2019-04-26T05:23:37.759Z,61.60
2019-04-26T05:24:37.734Z,61.60
2019-04-26T05:25:40.192Z,61.57
2019-04-26T05:26:37.702Z,61.07
2019-04-26T05:27:37.663Z,60.74
2019-04-26T05:28:37.635Z,60.24
2019-04-26T05:29:37.607Z,60.51
2019-04-26T05:30:37.584Z,60.21
2019-04-26T05:31:37.575Z,59.50
2019-04-26T05:32:37.528Z,59.90
2019-04-26T05:33:37.512Z,59.60
2019-04-26T05:34:37.478Z,59.60
2019-04-26T05:35:37.456Z,59.70
2019-04-26T05:36:37.450Z,59.70
2019-04-26T05:37:37.405Z,59.77
2019-04-26T05:38:37.384Z,59.57
2019-04-26T05:39:37.361Z,59.67
2019-04-26T05:40:37.349Z,59.67
2019-04-26T05:41:37.325Z,59.57
2019-04-26T05:42:37.276Z,59.67
2019-04-26T05:43:37.257Z,59.57
2019-04-26T05:44:37.230Z,59.77
2019-04-26T05:45:37.204Z,59.55
2019-04-26T05:46:37.205Z,59.67
2019-04-26T05:47:37.154Z,59.37
2019-04-26T05:48:37.132Z,59.77
2019-04-26T05:49:37.177Z,59.64
2019-04-26T05:50:37.081Z,59.55
2019-04-26T05:51:37.079Z,59.72
2019-04-26T05:52:37.032Z,58.61
2019-04-26T05:53:37.006Z,59.22
2019-04-26T05:54:36.978Z,58.68
2019-04-26T05:55:36.958Z,57.65
2019-04-26T05:56:36.957Z,58.15
2019-04-26T05:57:36.908Z,57.55
2019-04-26T05:58:36.884Z,57.32
2019-04-26T05:59:36.926Z,56.62
2019-04-26T06:00:36.840Z,56.29
2019-04-26T06:01:36.845Z,55.79
2019-04-26T06:02:36.800Z,55.38
2019-04-26T06:03:36.762Z,56.09
2019-04-26T06:04:36.742Z,55.35
2019-04-26T06:05:36.721Z,55.55
2019-04-26T06:06:38.632Z,54.96
2019-04-26T06:07:39.627Z,55.16
2019-04-26T06:09:14.258Z,55.26
2019-04-26T06:09:38.625Z,55.13
2019-04-26T06:10:36.612Z,54.70
2019-04-26T06:11:36.591Z,54.43
2019-04-26T06:12:36.584Z,54.93
2019-04-26T06:13:36.534Z,55.13
2019-04-26T06:14:36.509Z,54.90
2019-04-26T06:15:36.483Z,55.20
2019-04-26T06:16:36.464Z,54.90
2019-04-26T06:17:36.521Z,54.80
2019-04-26T06:18:36.419Z,53.80
2019-04-26T06:19:36.399Z,55.20
2019-04-26T06:20:36.374Z,55.33
2019-04-26T06:21:36.356Z,55.30
2019-04-26T06:22:36.351Z,55.00
2019-04-26T06:23:36.305Z,55.80
2019-04-26T06:24:36.288Z,55.03
2019-04-26T06:25:38.020Z,55.63
2019-04-26T06:26:36.247Z,55.73
2019-04-26T06:27:36.238Z,55.13
2019-04-26T06:28:36.191Z,55.96
2019-04-26T06:29:36.169Z,55.96
2019-04-26T06:30:45.220Z,56.56
2019-04-26T06:31:36.128Z,56.56
2019-04-26T06:32:36.202Z,56.16
2019-04-26T06:33:36.081Z,55.35
2019-04-26T06:34:36.052Z,55.63
2019-04-26T06:35:36.031Z,55.63
2019-04-26T06:36:36.017Z,55.53
2019-04-26T06:37:36.010Z,55.43
2019-04-26T06:38:43.731Z,55.83
2019-04-26T06:39:35.947Z,56.34
2019-04-26T06:40:41.831Z,55.63
2019-04-26T06:41:35.901Z,55.93
2019-04-26T06:42:35.936Z,55.83
2019-04-26T06:43:35.849Z,56.10
2019-04-26T06:44:35.825Z,55.80
2019-04-26T06:45:35.806Z,55.58
2019-04-26T06:46:35.779Z,55.68
2019-04-26T06:47:35.762Z,54.88
2019-04-26T06:48:35.758Z,55.25
2019-04-26T06:49:35.715Z,54.95
2019-04-26T06:50:35.690Z,54.72
2019-04-26T06:51:35.667Z,54.93
2019-04-26T06:52:35.643Z,55.13
2019-04-26T06:53:35.644Z,54.32
2019-04-26T06:54:35.656Z,53.89
2019-04-26T06:55:35.578Z,53.87
2019-04-26T06:56:35.554Z,53.37
2019-04-26T06:57:35.530Z,53.47
2019-04-26T06:58:35.534Z,53.27
2019-04-26T06:59:36.445Z,52.87
2019-04-26T07:00:35.470Z,53.17
2019-04-26T07:01:35.442Z,53.24
2019-04-26T07:02:35.420Z,52.34
2019-04-26T07:03:35.420Z,52.44
2019-04-26T07:04:35.378Z,52.32
2019-04-26T07:05:35.356Z,52.22
2019-04-26T07:06:35.503Z,52.39
2019-04-26T07:07:35.315Z,51.89
2019-04-26T07:08:35.313Z,51.69
2019-04-26T07:09:35.272Z,51.59
2019-04-26T07:10:35.248Z,51.79
2019-04-26T07:11:35.226Z,51.27
2019-04-26T07:12:35.202Z,51.27
2019-04-26T07:13:35.213Z,51.57
2019-04-26T07:14:35.161Z,51.02
2019-04-26T07:15:35.143Z,50.82
2019-04-26T07:16:35.124Z,50.02
2019-04-26T07:17:35.102Z,50.10
2019-04-26T07:18:35.077Z,50.10
2019-04-26T07:19:35.082Z,49.60
2019-04-26T07:20:35.039Z,50.10
2019-04-26T07:21:35.018Z,49.27
2019-04-26T07:22:35.871Z,48.78
2019-04-26T07:23:34.978Z,49.25
2019-04-26T07:24:34.975Z,48.95
2019-04-26T07:25:34.936Z,49.57
2019-04-26T07:26:34.924Z,49.87
2019-04-26T07:27:34.893Z,49.87
2019-04-26T07:28:34.872Z,49.65
2019-04-26T07:29:34.879Z,49.05
2019-04-26T07:30:34.835Z,49.35
2019-04-26T07:31:34.812Z,49.25
2019-04-26T07:32:34.798Z,48.25
2019-04-26T07:33:34.771Z,49.38
2019-04-26T07:34:34.782Z,49.18
2019-04-26T07:35:34.732Z,49.27
2019-04-26T07:36:34.718Z,49.15
2019-04-26T07:37:34.700Z,48.95
2019-04-26T07:38:34.672Z,49.15
2019-04-26T07:39:34.693Z,48.68
2019-04-26T07:40:34.647Z,48.68
2019-04-26T07:41:34.614Z,48.48
2019-04-26T07:42:34.604Z,48.58
2019-04-26T07:43:34.583Z,48.58
2019-04-26T07:44:34.577Z,48.58
2019-04-26T07:45:34.534Z,48.58
2019-04-26T07:46:34.510Z,50.17
2019-04-26T07:47:34.491Z,49.98
2019-04-26T07:48:34.510Z,49.18
2019-04-26T07:49:34.454Z,48.18
2019-04-26T07:50:34.464Z,48.58
2019-04-26T07:51:34.466Z,48.70
2019-04-26T07:52:34.396Z,48.40
2019-04-26T07:53:34.371Z,48.02
2019-04-26T07:54:34.353Z,48.43
2019-04-26T07:55:34.359Z,48.65
2019-04-26T07:56:34.312Z,48.55
2019-04-26T07:57:34.294Z,48.72
2019-04-26T07:58:34.278Z,47.90
2019-04-26T07:59:34.253Z,48.20
2019-04-26T08:00:44.327Z,48.18
2019-04-26T08:01:34.219Z,47.98
2019-04-26T08:02:34.195Z,48.35
2019-04-26T08:03:34.180Z,47.56
2019-04-26T08:04:34.164Z,46.64
2019-04-26T08:05:34.164Z,46.73
2019-04-26T08:06:34.116Z,46.72
2019-04-26T08:07:34.101Z,46.42
2019-04-26T08:08:34.080Z,46.31
2019-04-26T08:09:34.056Z,46.30
2019-04-26T08:10:34.061Z,46.00
2019-04-26T08:11:34.020Z,45.70
2019-04-26T08:12:34.007Z,46.17
2019-04-26T08:13:33.982Z,45.67
2019-04-26T08:14:33.959Z,45.67
2019-04-26T08:15:33.979Z,44.96
2019-04-26T08:16:33.920Z,44.26
2019-04-26T08:17:33.907Z,44.76
2019-04-26T08:18:33.894Z,45.06
2019-04-26T08:19:33.869Z,45.28
2019-04-26T08:20:33.877Z,45.18
2019-04-26T08:21:33.829Z,45.18
2019-04-26T08:22:33.918Z,44.98
2019-04-26T08:23:42.190Z,45.87
2019-04-26T08:24:33.777Z,44.88
2019-04-26T08:25:33.752Z,44.98
2019-04-26T08:26:33.753Z,44.16
2019-04-26T08:27:33.718Z,44.26
2019-04-26T08:28:33.697Z,43.96
2019-04-26T08:29:34.647Z,45.26
2019-04-26T08:30:33.666Z,45.15
2019-04-26T08:31:33.664Z,44.16
2019-04-26T08:32:33.648Z,44.36
2019-04-26T08:33:33.601Z,44.64
2019-04-26T08:34:33.876Z,44.14
2019-04-26T08:35:33.579Z,44.14
2019-04-26T08:36:33.580Z,44.24
2019-04-26T08:37:36.494Z,44.06
2019-04-26T08:38:33.505Z,42.86
2019-04-26T08:39:45.027Z,43.37
2019-04-26T08:40:33.477Z,43.44
2019-04-26T08:41:35.263Z,43.96
2019-04-26T08:42:33.483Z,43.86
2019-04-26T08:43:33.411Z,43.96
2019-04-26T08:44:34.517Z,45.15
2019-04-26T08:45:33.379Z,44.68
2019-04-26T08:46:36.275Z,44.18
2019-04-26T08:47:33.338Z,44.28
2019-04-26T08:48:33.323Z,45.37
2019-04-26T08:49:35.054Z,44.88
2019-04-26T08:50:33.285Z,44.98
2019-04-26T08:51:33.288Z,44.90
2019-04-26T08:52:33.254Z,45.92
2019-04-26T08:53:33.232Z,45.24
2019-04-26T08:54:33.208Z,46.24
2019-04-26T08:55:33.194Z,47.16
2019-04-26T08:56:33.210Z,46.48
2019-04-26T08:57:33.152Z,47.08
2019-04-26T08:58:33.132Z,46.88
2019-04-26T08:59:33.121Z,47.58
2019-04-26T09:00:33.093Z,47.80
2019-04-26T09:01:33.087Z,47.10
2019-04-26T09:02:33.222Z,47.53
2019-04-26T09:03:33.045Z,48.05
2019-04-26T09:04:33.015Z,47.85
2019-04-26T09:05:33.008Z,47.87
2019-04-26T09:06:32.993Z,48.37
2019-04-26T09:07:33.065Z,48.69
2019-04-26T09:08:33.064Z,48.69
2019-04-26T09:09:32.921Z,48.69
2019-04-26T09:10:32.902Z,49.09
2019-04-26T09:11:33.950Z,49.19
2019-04-26T09:12:32.880Z,49.40
2019-04-26T09:13:32.842Z,48.72
2019-04-26T09:14:32.923Z,50.09
2019-04-26T09:15:32.895Z,49.59
2019-04-26T09:16:32.896Z,49.79
2019-04-26T09:17:33.831Z,50.42
2019-04-26T09:18:42.312Z,50.94
2019-04-26T09:19:32.768Z,50.64
2019-04-26T09:20:32.747Z,50.64
2019-04-26T09:21:32.715Z,51.34
2019-04-26T09:22:32.754Z,50.74
2019-04-26T09:23:39.854Z,50.94
2019-04-26T09:24:32.615Z,51.44
2019-04-26T09:25:34.611Z,51.84
2019-04-26T09:26:32.645Z,51.32
2019-04-26T09:27:32.579Z,51.09
2019-04-26T09:28:32.533Z,50.39
2019-04-26T09:29:32.515Z,49.97
2019-04-26T09:30:34.296Z,49.79
2019-04-26T09:31:32.471Z,49.85
2019-04-26T09:32:32.480Z,49.95
2019-04-26T09:33:35.932Z,49.32
2019-04-26T09:34:32.416Z,48.68
2019-04-26T09:35:32.388Z,48.28
2019-04-26T09:36:32.550Z,47.24
2019-04-26T09:37:32.358Z,46.44
2019-04-26T09:38:32.353Z,45.60
2019-04-26T09:39:32.308Z,44.90
2019-04-26T09:40:32.306Z,44.98
2019-04-26T09:41:32.311Z,44.88
2019-04-26T09:42:32.261Z,44.46
2019-04-26T09:43:32.251Z,43.84
2019-04-26T09:44:32.209Z,44.12
2019-04-26T09:45:32.197Z,42.83
2019-04-26T09:46:32.214Z,42.51
2019-04-26T09:47:32.231Z,43.60
2019-04-26T09:48:32.159Z,42.72
2019-04-26T09:49:32.120Z,42.93
2019-04-26T09:50:32.095Z,43.05
2019-04-26T09:51:34.766Z,43.13
2019-04-26T09:52:32.068Z,43.02
2019-04-26T09:53:32.097Z,43.32
2019-04-26T09:54:32.078Z,42.53
2019-04-26T09:55:35.486Z,42.15
2019-04-26T09:56:32.035Z,41.47
2019-04-26T09:57:31.970Z,41.99
2019-04-26T09:58:32.282Z,43.19
2019-04-26T09:59:31.938Z,44.08
2019-04-26T10:00:31.913Z,44.18
2019-04-26T10:01:31.894Z,43.96
2019-04-26T10:02:33.823Z,43.19
2019-04-26T10:03:34.228Z,44.16
2019-04-26T10:04:31.833Z,42.99
2019-04-26T10:05:31.815Z,43.49
2019-04-26T10:06:31.826Z,43.46
2019-04-26T10:07:33.436Z,43.19
2019-04-26T10:08:31.783Z,44.82
2019-04-26T10:09:31.738Z,44.42
2019-04-26T10:10:35.230Z,44.12
2019-04-26T10:11:31.704Z,46.42
2019-04-26T10:12:31.686Z,45.00
2019-04-26T10:13:31.699Z,44.53
2019-04-26T10:14:31.644Z,45.72
2019-04-26T10:15:31.625Z,45.94
2019-04-26T10:16:33.528Z,45.26
2019-04-26T10:17:31.611Z,46.48
2019-04-26T10:18:31.593Z,46.19
2019-04-26T10:19:31.897Z,46.48
2019-04-26T10:20:31.527Z,47.00
2019-04-26T10:21:31.524Z,46.70
2019-04-26T10:22:31.484Z,47.03
2019-04-26T10:23:31.493Z,47.15
2019-04-26T10:24:31.452Z,47.55
2019-04-26T10:25:31.427Z,47.22
2019-04-26T10:26:31.408Z,46.95
2019-04-26T10:27:32.542Z,46.85
2019-04-26T10:28:31.401Z,47.03
2019-04-26T10:29:31.344Z,47.92
2019-04-26T10:30:31.324Z,46.83
2019-04-26T10:31:31.305Z,46.83
2019-04-26T10:32:31.281Z,47.00
2019-04-26T10:33:32.611Z,46.41
2019-04-26T10:34:31.263Z,46.73
2019-04-26T10:35:31.220Z,47.33
2019-04-26T10:36:31.497Z,47.20
2019-04-26T10:37:39.156Z,47.00
2019-04-26T10:38:31.162Z,46.70
2019-04-26T10:39:39.243Z,46.80
2019-04-26T10:40:35.780Z,47.28
2019-04-26T10:41:31.145Z,46.08
2019-04-26T10:42:31.074Z,46.31
2019-04-26T10:43:31.117Z,45.40
2019-04-26T10:44:31.060Z,45.40
2019-04-26T10:45:31.007Z,45.21
2019-04-26T10:46:30.990Z,45.81
2019-04-26T10:47:34.273Z,45.61
2019-04-26T10:48:30.955Z,46.73
2019-04-26T10:49:30.948Z,46.11
2019-04-26T10:50:33.116Z,45.51
2019-04-26T10:51:30.880Z,45.40
2019-04-26T10:52:30.873Z,44.99
2019-04-26T10:53:31.965Z,45.21
2019-04-26T10:54:30.850Z,45.21
2019-04-26T10:55:30.801Z,45.59
2019-04-26T10:56:30.777Z,45.39
2019-04-26T10:57:30.757Z,45.29
2019-04-26T10:58:31.963Z,43.99
2019-04-26T10:59:31.861Z,42.59
2019-04-26T11:00:30.691Z,43.39
2019-04-26T11:01:30.682Z,43.29
2019-04-26T11:02:30.652Z,43.89
2019-04-26T11:03:30.632Z,43.69
2019-04-26T11:04:30.633Z,43.69
2019-04-26T11:05:30.595Z,42.51
2019-04-26T11:06:30.645Z,43.39
2019-04-26T11:07:30.608Z,43.97
2019-04-26T11:08:30.583Z,43.97
2019-04-26T11:09:30.649Z,43.57
2019-04-26T11:10:30.480Z,42.87
2019-04-26T11:11:30.460Z,42.47
2019-04-26T11:12:30.448Z,42.95
2019-04-26T11:13:30.417Z,42.97
2019-04-26T11:14:30.397Z,43.05
2019-04-26T11:15:32.612Z,42.65
2019-04-26T11:16:30.359Z,43.65
2019-04-26T11:17:30.333Z,43.35
2019-04-26T11:18:30.310Z,43.85
2019-04-26T11:19:32.024Z,44.45
2019-04-26T11:20:30.296Z,45.64
2019-04-26T11:21:30.251Z,45.06
2019-04-26T11:22:33.448Z,44.67
2019-04-26T11:23:30.221Z,44.24
2019-04-26T11:24:30.186Z,45.62
2019-04-26T11:25:30.234Z,44.05
2019-04-26T11:26:31.096Z,44.24
2019-04-26T11:27:30.128Z,44.15
2019-04-26T11:28:30.146Z,44.94
2019-04-26T11:29:30.212Z,45.14
2019-04-26T11:30:30.083Z,45.14
2019-04-26T11:31:30.121Z,45.34
2019-04-26T11:32:33.140Z,45.14
2019-04-26T11:33:29.998Z,44.27
2019-04-26T11:34:29.991Z,46.16
2019-04-26T11:35:33.202Z,45.36
2019-04-26T11:36:29.993Z,44.69
2019-04-26T11:37:29.922Z,45.39
2019-04-26T11:38:31.198Z,44.07
2019-04-26T11:39:29.893Z,45.47
2019-04-26T11:40:29.888Z,45.14
2019-04-26T11:41:29.879Z,44.35
2019-04-26T11:42:29.875Z,44.27
2019-04-26T11:43:29.789Z,45.17
2019-04-26T11:44:29.886Z,44.17
2019-04-26T11:45:29.849Z,44.46
2019-04-26T11:46:30.359Z,44.84
2019-04-26T11:47:29.767Z,44.57
2019-04-26T11:48:30.649Z,44.37
2019-04-26T11:49:29.719Z,44.96
2019-04-26T11:50:29.642Z,45.94
2019-04-26T11:51:29.662Z,44.94
2019-04-26T11:52:32.247Z,44.53
2019-04-26T11:53:29.654Z,44.02
2019-04-26T11:54:29.559Z,44.94
2019-04-26T11:55:30.255Z,45.34
2019-04-26T11:56:29.519Z,44.94
2019-04-26T11:57:29.501Z,44.84
2019-04-26T11:58:29.529Z,45.06
2019-04-26T11:59:30.664Z,44.45
2019-04-26T12:00:29.444Z,45.17
2019-04-26T12:01:29.423Z,45.26
2019-04-26T12:02:29.396Z,45.17
2019-04-26T12:03:29.419Z,45.86
2019-04-26T12:04:29.352Z,45.26
2019-04-26T12:05:29.332Z,44.99
2019-04-26T12:06:29.308Z,45.68
2019-04-26T12:07:29.289Z,45.48
2019-04-26T12:08:29.293Z,44.87
2019-04-26T12:09:29.251Z,44.74
2019-04-26T12:10:29.227Z,45.34
2019-04-26T12:11:36.156Z,45.24
2019-04-26T12:12:29.183Z,44.24
2019-04-26T12:13:29.187Z,44.24
2019-04-26T12:14:29.456Z,44.54
2019-04-26T12:15:30.412Z,44.05
2019-04-26T12:16:29.129Z,44.94
2019-04-26T12:17:31.206Z,44.24
2019-04-26T12:18:29.083Z,44.24
2019-04-26T12:19:29.067Z,44.17
2019-04-26T12:20:29.017Z,44.57
2019-04-26T12:21:30.376Z,44.57
2019-04-26T12:22:28.974Z,44.17
2019-04-26T12:23:28.957Z,44.87
2019-04-26T12:24:29.983Z,44.57
2019-04-26T12:25:31.076Z,44.37
2019-04-26T12:26:28.917Z,44.27
2019-04-26T12:27:30.657Z,44.24
2019-04-26T12:28:28.860Z,44.74
2019-04-26T12:29:28.833Z,44.24
2019-04-26T12:30:28.819Z,44.23
2019-04-26T12:31:28.889Z,43.23
2019-04-26T12:32:28.782Z,43.52
2019-04-26T12:33:28.753Z,44.24
2019-04-26T12:34:28.732Z,44.02
2019-04-26T12:35:30.116Z,43.43
2019-04-26T12:36:28.709Z,43.52
2019-04-26T12:37:28.690Z,43.55
2019-04-26T12:38:30.044Z,42.85
2019-04-26T12:39:32.309Z,43.75
2019-04-26T12:40:28.609Z,44.24
2019-04-26T12:41:40.009Z,44.12
2019-04-26T12:42:28.666Z,43.93
2019-04-26T12:43:28.546Z,44.23
2019-04-26T12:44:32.150Z,43.38
2019-04-26T12:45:28.510Z,42.81
2019-04-26T12:46:29.645Z,43.79
2019-04-26T12:47:30.554Z,43.86
2019-04-26T12:48:28.440Z,43.46
2019-04-26T12:49:28.420Z,42.57
2019-04-26T12:50:29.561Z,43.16
2019-04-26T12:51:28.388Z,41.87
2019-04-26T12:52:28.395Z,42.19